Time;durP1;ratioP1;P1;durP2;ratioP2;P2;SDS_P1;SDS_P2;PMS_P1;PMS_P2;Temp;Humidity;BMP_temperature;BMP_pressure;BME280_temperature;BME280_humidity;BME280_pressure;Samples;Min_cycle;Max_cycle;Signal;HPM_P1;HPM_P2
2024/01/28 00:01:48;;;;;;;3.35;2.42;;;;;;;;;;6304842;28;20183;-70
2024/01/28 00:04:51;;;;;;;4.78;3.67;;;;;;;;;;6313888;28;20437;-69
2024/01/28 00:07:53;;;;;;;3.75;2.55;;;;;;;;;;6310852;28;20231;-71
2024/01/28 00:10:55;;;;;;;10.07;2.17;;;;;;;;;;6298250;28;20203;-70
2024/01/28 00:13:57;;;;;;;5.32;2.17;;;;;;;;;;6305099;28;20074;-70
2024/01/28 00:16:59;;;;;;;3.70;1.70;;;;;;;;;;6310017;28;20139;-70
2024/01/28 00:20:03;;;;;;;3.30;2.47;;;;;;;;;;6305500;28;20457;-70
2024/01/28 00:23:05;;;;;;;4.88;2.58;;;;;;;;;;6312268;28;20801;-70
2024/01/28 00:26:07;;;;;;;10.93;4.35;;;;;;;;;;6311563;28;20036;-71
2024/01/28 00:29:09;;;;;;;12.45;3.03;;;;;;;;;;6302764;28;20078;-70
2024/01/28 00:32:11;;;;;;;3.88;1.98;;;;;;;;;;6297543;28;20121;-70
2024/01/28 00:35:13;;;;;;;4.57;2.03;;;;;;;;;;6314127;28;20042;-71
2024/01/28 00:38:15;;;;;;;5.15;1.63;;;;;;;;;;6288163;28;20084;-71
2024/01/28 00:41:26;;;;;;;3.03;1.98;;;;;;;;;;6319554;28;20047;-71
2024/01/28 00:44:28;;;;;;;3.88;2.03;;;;;;;;;;6288275;28;20052;-71
2024/01/28 00:47:31;;;;;;;4.20;2.22;;;;;;;;;;6302365;28;20071;-71
2024/01/28 00:50:33;;;;;;;4.88;1.70;;;;;;;;;;6310316;28;20052;-71
2024/01/28 00:53:35;;;;;;;6.25;4.30;;;;;;;;;;6290048;28;20059;-71
2024/01/28 00:56:37;;;;;;;4.05;2.47;;;;;;;;;;6319561;28;20120;-71
2024/01/28 00:59:39;;;;;;;3.97;1.75;;;;;;;;;;6315567;28;20529;-70
2024/01/28 01:02:41;;;;;;;3.97;2.40;;;;;;;;;;6295004;28;20044;-70
2024/01/28 01:05:46;;;;;;;6.15;3.20;;;;;;;;;;6303027;28;20046;-70
2024/01/28 01:08:48;;;;;;;3.65;2.78;;;;;;;;;;6317076;28;20077;-70
2024/01/28 01:11:50;;;;;;;10.20;3.03;;;;;;;;;;6309890;28;20047;-70
2024/01/28 01:14:52;;;;;;;4.93;2.95;;;;;;;;;;6305973;28;20036;-71
2024/01/28 01:17:54;;;;;;;5.45;3.13;;;;;;;;;;6305859;28;20051;-71
2024/01/28 01:20:56;;;;;;;4.18;2.00;;;;;;;;;;6295837;28;20057;-70
2024/01/28 01:23:58;;;;;;;4.03;2.90;;;;;;;;;;6290859;28;20079;-70
2024/01/28 01:27:00;;;;;;;4.85;2.50;;;;;;;;;;6308404;28;20070;-70
2024/01/28 01:30:03;;;;;;;5.80;5.40;;;;;;;;;;6307663;28;20536;-71
2024/01/28 01:33:05;;;;;;;6.60;2.85;;;;;;;;;;6295584;28;20518;-70
2024/01/28 01:36:08;;;;;;;10.30;3.33;;;;;;;;;;6323313;28;20146;-71
2024/01/28 01:39:10;;;;;;;9.43;2.67;;;;;;;;;;6311545;28;20047;-70
2024/01/28 01:42:12;;;;;;;6.95;2.80;;;;;;;;;;6296787;28;20803;-71
2024/01/28 01:45:15;;;;;;;3.38;1.92;;;;;;;;;;6302528;28;20821;-71
2024/01/28 01:48:19;;;;;;;4.85;3.05;;;;;;;;;;6308306;28;20052;-70
2024/01/28 01:51:23;;;;;;;4.03;1.83;;;;;;;;;;6287462;28;20044;-70
2024/01/28 01:54:25;;;;;;;4.30;2.65;;;;;;;;;;6275797;28;20052;-70
2024/01/28 01:57:27;;;;;;;4.85;2.88;;;;;;;;;;6302530;28;20052;-71
2024/01/28 02:00:31;;;;;;;3.45;2.13;;;;;;;;;;6312036;28;20051;-70
2024/01/28 02:03:33;;;;;;;4.60;3.00;;;;;;;;;;6302779;28;20059;-70
2024/01/28 02:06:36;;;;;;;5.60;2.72;;;;;;;;;;6311413;28;20056;-70
2024/01/28 02:09:38;;;;;;;7.47;3.78;;;;;;;;;;6312672;28;20044;-72
2024/01/28 02:12:43;;;;;;;4.90;3.13;;;;;;;;;;6305346;28;20040;-71
2024/01/28 02:15:45;;;;;;;4.18;2.88;;;;;;;;;;6303445;28;20586;-70
2024/01/28 02:18:48;;;;;;;7.18;6.47;;;;;;;;;;6312506;28;20427;-71
2024/01/28 02:21:50;;;;;;;3.60;2.13;;;;;;;;;;6301489;28;20052;-71
2024/01/28 02:24:52;;;;;;;3.67;2.25;;;;;;;;;;6299259;28;20105;-71
2024/01/28 02:27:54;;;;;;;5.43;3.03;;;;;;;;;;6315439;28;20717;-71
2024/01/28 02:30:56;;;;;;;3.42;2.92;;;;;;;;;;6316756;28;20059;-70
2024/01/28 02:33:59;;;;;;;3.50;2.00;;;;;;;;;;6310840;28;20032;-70
2024/01/28 02:37:01;;;;;;;5.20;3.00;;;;;;;;;;6312091;28;20156;-70
2024/01/28 02:40:04;;;;;;;3.15;2.40;;;;;;;;;;6314423;28;20036;-72
2024/01/28 02:43:07;;;;;;;3.40;2.28;;;;;;;;;;6315183;28;20059;-71
2024/01/28 02:46:09;;;;;;;4.88;3.15;;;;;;;;;;6289698;28;20151;-71
2024/01/28 02:49:11;;;;;;;6.82;6.22;;;;;;;;;;6315390;28;20429;-71
2024/01/28 02:52:13;;;;;;;4.55;2.33;;;;;;;;;;6301386;28;20510;-72
2024/01/28 02:55:16;;;;;;;3.20;1.73;;;;;;;;;;6313365;28;20052;-70
2024/01/28 02:58:18;;;;;;;6.90;3.78;;;;;;;;;;6323743;28;20058;-69
2024/01/28 03:01:20;;;;;;;4.72;2.72;;;;;;;;;;6324984;28;20059;-69
2024/01/28 03:04:22;;;;;;;4.00;2.42;;;;;;;;;;6310810;28;20055;-69
2024/01/28 03:07:24;;;;;;;4.20;3.05;;;;;;;;;;6302468;28;20051;-69
2024/01/28 03:10:27;;;;;;;6.88;4.47;;;;;;;;;;6322825;28;20861;-69
2024/01/28 03:13:29;;;;;;;8.85;6.25;;;;;;;;;;6319373;28;20044;-70
2024/01/28 03:16:32;;;;;;;7.32;4.25;;;;;;;;;;6310193;28;20082;-70
2024/01/28 03:19:34;;;;;;;5.65;2.70;;;;;;;;;;6307828;28;20101;-69
2024/01/28 03:22:36;;;;;;;7.05;2.90;;;;;;;;;;6319372;28;20761;-71
2024/01/28 03:25:38;;;;;;;6.68;3.50;;;;;;;;;;6320823;28;20032;-70
2024/01/28 03:28:42;;;;;;;6.30;4.32;;;;;;;;;;6314471;28;20055;-70
2024/01/28 03:31:44;;;;;;;7.28;3.15;;;;;;;;;;6298585;28;20048;-71
2024/01/28 03:34:46;;;;;;;3.85;2.25;;;;;;;;;;6291131;28;20095;-71
2024/01/28 03:37:49;;;;;;;5.47;3.80;;;;;;;;;;6309583;28;20048;-71
2024/01/28 03:40:51;;;;;;;6.03;3.20;;;;;;;;;;6311362;28;20047;-70
2024/01/28 03:43:53;;;;;;;5.93;2.95;;;;;;;;;;6297892;28;20054;-71
2024/01/28 03:46:55;;;;;;;6.50;4.45;;;;;;;;;;6311943;28;20114;-71
2024/01/28 03:49:57;;;;;;;5.07;3.42;;;;;;;;;;6318442;28;20047;-70
2024/01/28 03:52:59;;;;;;;5.60;4.22;;;;;;;;;;6315904;28;20056;-70
2024/01/28 03:56:01;;;;;;;12.40;5.25;;;;;;;;;;6317024;28;20044;-71
2024/01/28 03:59:03;;;;;;;5.38;4.10;;;;;;;;;;6291609;28;20052;-70
2024/01/28 04:02:07;;;;;;;5.55;3.25;;;;;;;;;;6309941;28;20059;-70
2024/01/28 04:05:09;;;;;;;6.05;3.13;;;;;;;;;;6304522;28;20051;-71
2024/01/28 04:08:12;;;;;;;5.53;4.18;;;;;;;;;;6301698;28;20048;-71
2024/01/28 04:11:14;;;;;;;5.28;3.80;;;;;;;;;;6290447;28;20055;-71
2024/01/28 04:14:16;;;;;;;3.38;2.63;;;;;;;;;;6286566;28;20052;-70
2024/01/28 04:17:18;;;;;;;7.40;5.25;;;;;;;;;;6307499;28;20234;-71
2024/01/28 04:20:20;;;;;;;5.53;3.85;;;;;;;;;;6323707;28;20048;-71
2024/01/28 04:23:22;;;;;;;4.43;3.15;;;;;;;;;;6303717;28;20072;-71
2024/01/28 04:26:25;;;;;;;8.45;3.58;;;;;;;;;;6312692;28;20558;-71
2024/01/28 04:29:28;;;;;;;3.40;2.55;;;;;;;;;;6307898;28;20056;-71
2024/01/28 04:32:30;;;;;;;4.97;3.20;;;;;;;;;;6313739;28;20616;-69
2024/01/28 04:35:32;;;;;;;5.72;4.78;;;;;;;;;;6312591;28;20044;-70
2024/01/28 04:38:34;;;;;;;5.30;3.35;;;;;;;;;;6284302;28;20078;-70
2024/01/28 04:41:37;;;;;;;6.63;4.35;;;;;;;;;;6319111;28;20052;-70
2024/01/28 04:44:39;;;;;;;4.70;3.55;;;;;;;;;;6308619;28;20040;-70
2024/01/28 04:47:41;;;;;;;7.22;4.68;;;;;;;;;;6317735;28;20039;-70
2024/01/28 04:50:43;;;;;;;7.05;4.10;;;;;;;;;;6296566;28;20058;-71
2024/01/28 04:53:45;;;;;;;16.25;8.43;;;;;;;;;;6304540;28;20362;-70
2024/01/28 04:56:47;;;;;;;6.93;4.93;;;;;;;;;;6317909;28;20040;-70
2024/01/28 04:59:49;;;;;;;7.05;4.75;;;;;;;;;;6305217;28;20063;-71
2024/01/28 05:02:55;;;;;;;4.65;3.08;;;;;;;;;;6317299;28;20040;-71
2024/01/28 05:05:59;;;;;;;5.30;3.25;;;;;;;;;;6318974;28;20048;-71
2024/01/28 05:09:04;;;;;;;6.55;4.13;;;;;;;;;;6293328;28;20470;-71
2024/01/28 05:12:06;;;;;;;10.55;9.70;;;;;;;;;;6315420;28;20954;-70
2024/01/28 05:15:09;;;;;;;7.00;5.15;;;;;;;;;;6306591;28;20047;-71
2024/01/28 05:18:11;;;;;;;6.88;5.28;;;;;;;;;;6299868;28;20040;-70
2024/01/28 05:21:13;;;;;;;9.23;6.47;;;;;;;;;;6294657;28;20036;-70
2024/01/28 05:24:15;;;;;;;14.55;6.75;;;;;;;;;;6288881;28;20048;-71
2024/01/28 05:27:18;;;;;;;12.55;8.45;;;;;;;;;;6308864;28;20060;-71
2024/01/28 05:30:20;;;;;;;7.00;4.82;;;;;;;;;;6291560;28;20047;-70
2024/01/28 05:33:22;;;;;;;6.80;4.38;;;;;;;;;;6284544;28;20048;-71
2024/01/28 05:36:24;;;;;;;5.80;4.80;;;;;;;;;;6307321;28;20824;-71
2024/01/28 05:39:26;;;;;;;8.27;4.90;;;;;;;;;;6315399;28;20046;-71
2024/01/28 05:42:28;;;;;;;6.70;5.03;;;;;;;;;;6302972;28;20048;-71
2024/01/28 05:45:31;;;;;;;8.30;3.97;;;;;;;;;;6294893;28;20063;-70
2024/01/28 05:48:33;;;;;;;6.25;3.63;;;;;;;;;;6288764;28;20078;-70
2024/01/28 05:51:39;;;;;;;9.82;5.40;;;;;;;;;;6292202;28;20434;-71
2024/01/28 05:54:42;;;;;;;;;;;;;;;;;;6304497;28;20392;-70
2024/01/28 05:57:45;;;;;;;4.93;3.63;;;;;;;;;;6308584;28;19924;-71
2024/01/28 06:00:47;;;;;;;4.85;4.03;;;;;;;;;;6290568;28;20040;-71
2024/01/28 06:03:49;;;;;;;4.45;3.20;;;;;;;;;;6314324;28;20044;-71
2024/01/28 06:06:52;;;;;;;6.80;4.57;;;;;;;;;;6314400;28;20064;-72
2024/01/28 06:09:54;;;;;;;5.22;2.90;;;;;;;;;;6309953;28;20043;-72
2024/01/28 06:12:56;;;;;;;10.02;5.25;;;;;;;;;;6274322;28;20514;-73
2024/01/28 06:15:59;;;;;;;9.02;5.78;;;;;;;;;;6302274;28;20121;-72
2024/01/28 06:19:04;;;;;;;10.68;6.90;;;;;;;;;;6306890;28;20943;-73
2024/01/28 06:22:06;;;;;;;7.13;6.32;;;;;;;;;;6307111;28;20036;-73
2024/01/28 06:25:08;;;;;;;3.97;2.83;;;;;;;;;;6293822;28;20210;-73
2024/01/28 06:28:12;;;;;;;6.40;4.47;;;;;;;;;;6292480;28;20045;-72
2024/01/28 06:31:20;;;;;;;10.27;6.53;;;;;;;;;;6296681;28;20043;-73
2024/01/28 06:34:23;;;;;;;8.57;6.03;;;;;;;;;;6300734;28;20138;-73
2024/01/28 06:37:25;;;;;;;11.95;6.68;;;;;;;;;;6313762;28;20051;-73
2024/01/28 06:40:27;;;;;;;6.63;4.57;;;;;;;;;;6316556;28;20067;-72
2024/01/28 06:43:29;;;;;;;9.88;6.25;;;;;;;;;;6309801;28;20541;-73
2024/01/28 06:46:32;;;;;;;7.97;4.78;;;;;;;;;;6298339;28;20556;-72
2024/01/28 06:49:34;;;;;;;6.88;3.70;;;;;;;;;;6317649;28;20047;-72
2024/01/28 06:52:36;;;;;;;19.08;3.33;;;;;;;;;;6312551;28;20236;-73
2024/01/28 06:55:39;;;;;;;7.65;5.68;;;;;;;;;;6312029;28;20055;-72
2024/01/28 06:58:42;;;;;;;12.57;6.25;;;;;;;;;;6322040;28;20048;-72
2024/01/28 07:01:47;;;;;;;9.98;6.03;;;;;;;;;;6311635;28;20050;-73
2024/01/28 07:04:50;;;;;;;8.48;7.38;;;;;;;;;;6299272;28;20051;-73
2024/01/28 07:07:53;;;;;;;9.52;5.05;;;;;;;;;;6307413;28;20036;-73
2024/01/28 07:10:58;;;;;;;7.43;4.47;;;;;;;;;;6306764;28;20048;-74
2024/01/28 07:14:00;;;;;;;5.38;3.97;;;;;;;;;;6297089;28;20052;-73
2024/01/28 07:17:02;;;;;;;4.93;3.30;;;;;;;;;;6275707;28;20047;-73
2024/01/28 07:20:05;;;;;;;5.93;3.95;;;;;;;;;;6299492;28;20040;-73
2024/01/28 07:23:09;;;;;;;6.90;4.05;;;;;;;;;;6300063;28;20054;-74
2024/01/28 07:26:11;;;;;;;8.43;4.45;;;;;;;;;;6312309;28;20565;-73
2024/01/28 07:29:13;;;;;;;11.80;6.03;;;;;;;;;;6295121;28;20060;-74
2024/01/28 07:32:16;;;;;;;10.55;8.23;;;;;;;;;;6316122;28;20739;-74
2024/01/28 07:35:18;;;;;;;8.23;6.32;;;;;;;;;;6309222;28;20044;-74
2024/01/28 07:38:20;;;;;;;7.78;7.03;;;;;;;;;;6306488;28;20437;-74
2024/01/28 07:41:23;;;;;;;10.20;5.60;;;;;;;;;;6317337;28;20052;-72
2024/01/28 07:44:26;;;;;;;9.20;6.63;;;;;;;;;;6311591;28;20256;-72
2024/01/28 07:47:29;;;;;;;8.38;5.40;;;;;;;;;;6304009;28;20043;-73
2024/01/28 07:50:31;;;;;;;10.73;6.97;;;;;;;;;;6297041;28;20051;-72
2024/01/28 07:53:34;;;;;;;9.02;6.50;;;;;;;;;;6312210;28;20078;-73
2024/01/28 07:56:36;;;;;;;7.70;6.05;;;;;;;;;;6315828;28;20040;-73
2024/01/28 07:59:38;;;;;;;6.88;5.07;;;;;;;;;;6310446;28;20043;-71
2024/01/28 08:02:40;;;;;;;7.40;4.97;;;;;;;;;;6314953;28;20671;-71
2024/01/28 08:05:42;;;;;;;10.23;6.15;;;;;;;;;;6301964;28;20040;-71
2024/01/28 08:08:45;;;;;;;9.95;7.18;;;;;;;;;;6318477;28;20051;-72
2024/01/28 08:11:47;;;;;;;7.55;5.10;;;;;;;;;;6309576;28;20541;-72
2024/01/28 08:14:49;;;;;;;12.73;7.45;;;;;;;;;;6319203;28;20112;-70
2024/01/28 08:17:56;;;;;;;10.82;6.43;;;;;;;;;;6284172;28;20062;-71
2024/01/28 08:20:58;;;;;;;9.15;6.70;;;;;;;;;;6309423;28;20446;-70
2024/01/28 08:24:00;;;;;;;10.45;8.40;;;;;;;;;;6298660;28;20414;-70
2024/01/28 08:27:03;;;;;;;8.45;4.75;;;;;;;;;;6312561;28;20525;-71
2024/01/28 08:30:07;;;;;;;7.72;7.03;;;;;;;;;;6295125;28;20043;-72
2024/01/28 08:33:10;;;;;;;10.52;8.48;;;;;;;;;;6271367;28;20446;-71
2024/01/28 08:36:12;;;;;;;11.30;10.10;;;;;;;;;;6313508;28;20744;-72
2024/01/28 08:39:14;;;;;;;4.20;3.38;;;;;;;;;;6258579;28;20048;-70
2024/01/28 08:42:18;;;;;;;10.43;5.95;;;;;;;;;;6279048;28;20055;-72
2024/01/28 08:45:21;;;;;;;7.65;6.18;;;;;;;;;;6289931;28;20442;-71
2024/01/28 08:48:25;;;;;;;10.75;6.00;;;;;;;;;;6310116;28;20557;-73
2024/01/28 08:51:28;;;;;;;9.65;8.25;;;;;;;;;;6294934;28;20755;-72
2024/01/28 08:54:30;;;;;;;6.32;3.70;;;;;;;;;;6307286;28;20083;-72
2024/01/28 08:57:32;;;;;;;6.43;5.35;;;;;;;;;;6291398;28;20035;-73
2024/01/28 09:00:34;;;;;;;12.60;5.85;;;;;;;;;;6294570;28;20036;-72
2024/01/28 09:03:36;;;;;;;12.98;6.97;;;;;;;;;;6305263;28;20094;-72
2024/01/28 09:06:39;;;;;;;10.10;7.40;;;;;;;;;;6286428;28;20040;-72
2024/01/28 09:09:41;;;;;;;7.90;4.97;;;;;;;;;;6302674;28;20055;-73
2024/01/28 09:12:43;;;;;;;6.20;5.43;;;;;;;;;;6311653;28;20050;-71
2024/01/28 09:15:45;;;;;;;11.32;9.30;;;;;;;;;;6309869;28;20681;-71
2024/01/28 09:18:47;;;;;;;4.45;3.17;;;;;;;;;;6306565;28;20081;-71
2024/01/28 09:21:50;;;;;;;9.55;6.53;;;;;;;;;;6300155;28;20522;-72
2024/01/28 09:24:52;;;;;;;3.60;2.65;;;;;;;;;;6310540;28;20040;-72
2024/01/28 09:27:55;;;;;;;6.10;3.83;;;;;;;;;;6311710;28;20032;-71
2024/01/28 09:30:57;;;;;;;5.32;4.45;;;;;;;;;;6286957;28;20048;-71
2024/01/28 09:33:59;;;;;;;3.15;2.50;;;;;;;;;;6286266;28;20043;-72
2024/01/28 09:37:01;;;;;;;8.88;3.47;;;;;;;;;;6299625;28;20490;-71
2024/01/28 09:40:04;;;;;;;9.65;3.85;;;;;;;;;;6287157;28;20043;-71
2024/01/28 09:43:22;;;;;;;7.72;3.28;;;;;;;;;;6299683;28;20044;-71
2024/01/28 09:46:25;;;;;;;7.22;6.53;;;;;;;;;;6300191;28;20743;-72
2024/01/28 09:49:30;;;;;;;5.35;3.35;;;;;;;;;;6293591;28;20778;-73
2024/01/28 09:52:33;;;;;;;6.82;3.20;;;;;;;;;;6306216;28;20050;-72
2024/01/28 09:55:36;;;;;;;3.97;3.08;;;;;;;;;;6295202;28;20190;-70
2024/01/28 09:58:40;;;;;;;10.15;4.40;;;;;;;;;;6278850;28;20570;-70
2024/01/28 10:01:42;;;;;;;8.07;5.50;;;;;;;;;;6310892;28;20105;-70
2024/01/28 10:04:48;;;;;;;14.18;7.05;;;;;;;;;;6292473;28;20047;-71
2024/01/28 10:08:03;;;;;;;28.27;14.40;;;;;;;;;;6308927;28;20047;-71
2024/01/28 10:11:07;;;;;;;19.38;9.40;;;;;;;;;;6298628;28;20043;-72
2024/01/28 10:14:10;;;;;;;16.45;13.02;;;;;;;;;;6276274;28;20534;-72
2024/01/28 10:17:13;;;;;;;8.25;6.07;;;;;;;;;;6296258;28;20533;-71
2024/01/28 10:20:21;;;;;;;9.77;5.35;;;;;;;;;;6307694;28;20788;-71
2024/01/28 10:23:23;;;;;;;5.03;3.20;;;;;;;;;;6317633;28;20060;-73
2024/01/28 10:26:26;;;;;;;8.20;6.72;;;;;;;;;;6300543;28;20526;-74
2024/01/28 10:29:28;;;;;;;6.85;3.55;;;;;;;;;;6299117;28;20569;-71
2024/01/28 10:32:30;;;;;;;7.53;5.25;;;;;;;;;;6313489;28;20734;-71
2024/01/28 10:35:32;;;;;;;9.82;6.32;;;;;;;;;;6311842;28;20481;-72
2024/01/28 10:38:35;;;;;;;7.95;4.20;;;;;;;;;;6307044;28;20040;-71
2024/01/28 10:41:39;;;;;;;10.70;6.88;;;;;;;;;;6302564;28;20044;-71
2024/01/28 10:44:49;;;;;;;7.28;4.47;;;;;;;;;;6301575;28;20047;-71
2024/01/28 10:47:57;;;;;;;21.45;4.93;;;;;;;;;;6305806;28;20093;-72
2024/01/28 10:50:59;;;;;;;8.93;3.53;;;;;;;;;;6286205;28;20046;-73
2024/01/28 10:54:07;;;;;;;7.07;3.15;;;;;;;;;;6299393;28;20051;-72
2024/01/28 10:57:09;;;;;;;6.22;3.35;;;;;;;;;;6317842;28;20067;-72
2024/01/28 11:00:20;;;;;;;6.75;4.50;;;;;;;;;;6294542;28;20040;-71
2024/01/28 11:03:24;;;;;;;10.30;6.30;;;;;;;;;;6309940;28;20040;-71
2024/01/28 11:06:28;;;;;;;11.05;4.30;;;;;;;;;;6296290;28;20032;-72
2024/01/28 11:09:32;;;;;;;10.02;5.80;;;;;;;;;;6301560;28;20055;-72
2024/01/28 11:12:35;;;;;;;6.70;4.60;;;;;;;;;;6289701;28;20039;-71
2024/01/28 11:15:37;;;;;;;5.45;4.07;;;;;;;;;;6302737;28;20048;-71
2024/01/28 11:18:39;;;;;;;6.82;4.63;;;;;;;;;;6315724;28;20087;-71
2024/01/28 11:21:41;;;;;;;8.90;5.47;;;;;;;;;;6319391;28;20054;-71
2024/01/28 11:25:08;;;;;;;4.18;3.33;;;;;;;;;;6320268;28;20043;-71
2024/01/28 11:28:13;;;;;;;7.57;4.50;;;;;;;;;;6292354;28;20036;-70
2024/01/28 11:31:36;;;;;;;8.32;3.58;;;;;;;;;;6300253;28;20055;-71
2024/01/28 11:34:42;;;;;;;8.93;3.45;;;;;;;;;;6297062;28;20122;-71
2024/01/28 11:37:57;;;;;;;9.40;3.67;;;;;;;;;;6297035;28;20036;-71
2024/01/28 11:41:00;;;;;;;9.38;5.63;;;;;;;;;;6310490;28;20037;-71
2024/01/28 11:44:02;;;;;;;12.43;8.05;;;;;;;;;;6316659;28;20083;-71
2024/01/28 11:47:06;;;;;;;13.25;6.80;;;;;;;;;;6284952;28;20527;-71
2024/01/28 11:50:09;;;;;;;9.00;6.00;;;;;;;;;;6313251;28;20054;-72
2024/01/28 11:53:14;;;;;;;6.38;4.30;;;;;;;;;;6320891;28;20047;-72
2024/01/28 11:56:17;;;;;;;6.45;4.03;;;;;;;;;;6312483;28;20155;-70
2024/01/28 11:59:19;;;;;;;4.25;3.28;;;;;;;;;;6312730;28;20036;-71
2024/01/28 12:02:21;;;;;;;9.82;4.20;;;;;;;;;;6314762;28;20062;-71
2024/01/28 12:05:23;;;;;;;6.35;3.85;;;;;;;;;;6307433;28;20048;-71
2024/01/28 12:08:29;;;;;;;5.78;4.38;;;;;;;;;;6299310;28;20113;-71
2024/01/28 12:11:32;;;;;;;8.15;4.00;;;;;;;;;;6300083;28;20716;-70
2024/01/28 12:14:34;;;;;;;7.28;4.35;;;;;;;;;;6296354;28;20055;-71
2024/01/28 12:17:37;;;;;;;10.43;7.18;;;;;;;;;;6308348;28;20628;-71
2024/01/28 12:20:40;;;;;;;4.38;3.30;;;;;;;;;;6288823;28;20051;-71
2024/01/28 12:23:44;;;;;;;8.98;4.85;;;;;;;;;;6288651;28;20146;-72
2024/01/28 12:26:46;;;;;;;6.68;3.80;;;;;;;;;;6292576;28;20043;-71
2024/01/28 12:29:50;;;;;;;5.57;3.25;;;;;;;;;;6301337;28;20043;-72
2024/01/28 12:32:52;;;;;;;6.65;4.13;;;;;;;;;;6293591;28;20753;-73
2024/01/28 12:35:54;;;;;;;9.63;8.90;;;;;;;;;;6291609;28;20544;-74
2024/01/28 12:38:56;;;;;;;10.48;6.80;;;;;;;;;;6300407;28;20032;-72
2024/01/28 12:41:58;;;;;;;9.52;5.88;;;;;;;;;;6299267;28;20047;-72
2024/01/28 12:45:01;;;;;;;9.85;6.95;;;;;;;;;;6277203;28;20054;-73
2024/01/28 12:48:05;;;;;;;12.02;7.18;;;;;;;;;;6301448;28;20582;-73
2024/01/28 12:51:07;;;;;;;5.35;3.75;;;;;;;;;;6308614;28;20052;-72
2024/01/28 12:54:09;;;;;;;8.65;5.10;;;;;;;;;;6324547;27;20040;-73
2024/01/28 12:57:13;;;;;;;9.35;6.53;;;;;;;;;;6291811;28;20039;-72
2024/01/28 13:00:16;;;;;;;9.68;6.45;;;;;;;;;;6303089;28;20048;-72
2024/01/28 13:03:20;;;;;;;13.70;5.13;;;;;;;;;;6305621;28;20035;-72
2024/01/28 13:06:22;;;;;;;9.32;6.85;;;;;;;;;;6307872;28;20048;-72
2024/01/28 13:09:28;;;;;;;9.95;4.90;;;;;;;;;;6315969;28;20043;-71
2024/01/28 13:12:33;;;;;;;7.07;4.68;;;;;;;;;;6306805;28;20058;-72
2024/01/28 13:15:35;;;;;;;11.70;5.30;;;;;;;;;;6271143;28;20127;-73
2024/01/28 13:18:38;;;;;;;4.70;3.60;;;;;;;;;;6292355;28;20126;-71
2024/01/28 13:21:40;;;;;;;9.25;8.18;;;;;;;;;;6304236;28;20529;-71
2024/01/28 13:24:44;;;;;;;8.10;5.47;;;;;;;;;;6301756;28;20044;-73
2024/01/28 13:27:47;;;;;;;7.97;6.40;;;;;;;;;;6314953;28;20040;-71
2024/01/28 13:30:49;;;;;;;5.35;4.03;;;;;;;;;;6301488;28;20048;-71
2024/01/28 13:33:51;;;;;;;6.20;5.25;;;;;;;;;;6301161;28;20746;-72
2024/01/28 13:36:54;;;;;;;7.28;5.90;;;;;;;;;;6310610;28;20055;-72
2024/01/28 13:39:57;;;;;;;8.05;4.68;;;;;;;;;;6302756;28;20040;-71
2024/01/28 13:42:59;;;;;;;7.18;5.55;;;;;;;;;;6309115;28;20865;-70
2024/01/28 13:46:01;;;;;;;7.38;6.78;;;;;;;;;;6298857;28;20526;-72
2024/01/28 13:49:04;;;;;;;11.13;6.25;;;;;;;;;;6296459;28;20035;-70
2024/01/28 13:52:06;;;;;;;5.70;3.65;;;;;;;;;;6295626;28;20828;-71
2024/01/28 13:55:10;;;;;;;9.55;6.03;;;;;;;;;;6279631;28;20523;-70
2024/01/28 13:58:12;;;;;;;7.70;4.70;;;;;;;;;;6295813;28;20044;-71
2024/01/28 14:01:14;;;;;;;7.28;4.88;;;;;;;;;;6317263;28;20044;-72
2024/01/28 14:04:17;;;;;;;9.90;6.90;;;;;;;;;;6307404;28;20071;-71
2024/01/28 14:07:20;;;;;;;14.10;7.15;;;;;;;;;;6296737;28;20067;-72
2024/01/28 14:10:22;;;;;;;8.77;4.65;;;;;;;;;;6290931;28;20060;-71
2024/01/28 14:13:24;;;;;;;5.03;3.30;;;;;;;;;;6305699;28;20106;-71
2024/01/28 14:16:27;;;;;;;11.07;7.38;;;;;;;;;;6297981;28;20060;-71
2024/01/28 14:19:29;;;;;;;6.82;5.82;;;;;;;;;;6318576;28;20065;-72
2024/01/28 14:22:32;;;;;;;15.88;7.65;;;;;;;;;;6318624;28;20829;-70
2024/01/28 14:25:34;;;;;;;13.55;7.82;;;;;;;;;;6302905;28;20048;-71
2024/01/28 14:28:36;;;;;;;4.45;3.67;;;;;;;;;;6310261;28;20109;-72
2024/01/28 14:31:38;;;;;;;6.82;3.75;;;;;;;;;;6314144;28;20063;-71
2024/01/28 14:34:40;;;;;;;8.20;6.28;;;;;;;;;;6302821;28;20450;-72
2024/01/28 14:37:42;;;;;;;9.10;5.32;;;;;;;;;;6306808;28;20040;-71
2024/01/28 14:40:44;;;;;;;7.63;6.80;;;;;;;;;;6312061;28;20877;-71
2024/01/28 14:43:48;;;;;;;10.27;4.72;;;;;;;;;;6320519;28;20079;-72
2024/01/28 14:46:50;;;;;;;9.30;5.63;;;;;;;;;;6319019;28;20096;-71
2024/01/28 14:49:52;;;;;;;8.23;6.35;;;;;;;;;;6322718;28;20047;-71
2024/01/28 14:52:54;;;;;;;8.77;7.93;;;;;;;;;;6306822;28;20552;-71
2024/01/28 14:55:57;;;;;;;7.80;5.82;;;;;;;;;;6310024;28;20070;-72
2024/01/28 14:58:59;;;;;;;8.57;5.72;;;;;;;;;;6304981;28;20045;-71
2024/01/28 15:02:03;;;;;;;11.35;6.72;;;;;;;;;;6293860;28;20472;-72
2024/01/28 15:05:05;;;;;;;12.50;7.03;;;;;;;;;;6314311;28;20044;-72
2024/01/28 15:08:08;;;;;;;12.27;7.25;;;;;;;;;;6313404;28;20040;-73
2024/01/28 15:11:10;;;;;;;12.13;7.38;;;;;;;;;;6301578;28;20044;-72
2024/01/28 15:14:12;;;;;;;23.05;7.32;;;;;;;;;;6308730;28;20051;-73
2024/01/28 15:17:14;;;;;;;14.15;8.20;;;;;;;;;;6306916;28;20047;-74
2024/01/28 15:20:20;;;;;;;36.45;17.70;;;;;;;;;;6301095;28;20056;-72
2024/01/28 15:23:22;;;;;;;20.42;12.18;;;;;;;;;;6319289;28;20062;-74
2024/01/28 15:26:24;;;;;;;13.48;8.90;;;;;;;;;;6314052;28;20552;-73
2024/01/28 15:29:26;;;;;;;18.33;10.23;;;;;;;;;;6280939;28;20070;-73
2024/01/28 15:32:28;;;;;;;16.33;10.25;;;;;;;;;;6316652;28;20055;-73
2024/01/28 15:35:31;;;;;;;24.90;13.30;;;;;;;;;;6293927;28;20044;-72
2024/01/28 15:38:33;;;;;;;19.75;12.80;;;;;;;;;;6272500;28;20102;-72
2024/01/28 15:41:35;;;;;;;16.95;8.90;;;;;;;;;;6315974;28;20047;-73
2024/01/28 15:44:38;;;;;;;9.20;6.95;;;;;;;;;;6309943;28;20047;-72
2024/01/28 15:47:42;;;;;;;11.32;6.85;;;;;;;;;;6298739;28;20059;-73
2024/01/28 15:50:44;;;;;;;11.52;8.90;;;;;;;;;;6293987;28;20059;-72
2024/01/28 15:53:46;;;;;;;21.30;11.70;;;;;;;;;;6290044;28;20043;-73
2024/01/28 15:56:48;;;;;;;18.15;14.02;;;;;;;;;;6285750;28;20627;-70
2024/01/28 15:59:52;;;;;;;18.25;11.55;;;;;;;;;;6301072;28;20051;-72
2024/01/28 16:03:05;;;;;;;16.77;10.52;;;;;;;;;;6311239;28;20298;-72
2024/01/28 16:06:07;;;;;;;9.98;7.88;;;;;;;;;;6302325;28;20070;-71
2024/01/28 16:09:09;;;;;;;20.15;15.32;;;;;;;;;;6279976;28;20766;-71
2024/01/28 16:12:12;;;;;;;13.95;9.68;;;;;;;;;;6315575;28;20816;-71
2024/01/28 16:15:14;;;;;;;12.30;7.70;;;;;;;;;;6315363;28;20541;-71
2024/01/28 16:18:17;;;;;;;14.57;8.32;;;;;;;;;;6309880;28;20047;-70
2024/01/28 16:21:19;;;;;;;15.23;11.30;;;;;;;;;;6302934;28;20577;-71
2024/01/28 16:24:21;;;;;;;23.33;13.32;;;;;;;;;;6305467;28;20055;-71
2024/01/28 16:27:25;;;;;;;19.65;10.93;;;;;;;;;;6287723;28;20056;-71
2024/01/28 16:30:28;;;;;;;22.60;13.75;;;;;;;;;;6311552;28;20036;-71
2024/01/28 16:33:30;;;;;;;16.25;12.23;;;;;;;;;;6308580;28;20048;-71
2024/01/28 16:36:33;;;;;;;16.85;11.10;;;;;;;;;;6295470;28;20044;-72
2024/01/28 16:39:36;;;;;;;9.18;5.50;;;;;;;;;;6305229;28;20190;-72
2024/01/28 16:42:38;;;;;;;16.60;9.82;;;;;;;;;;6308156;28;20046;-71
2024/01/28 16:45:40;;;;;;;19.38;11.02;;;;;;;;;;6297460;28;20044;-71
2024/01/28 16:48:42;;;;;;;15.27;9.82;;;;;;;;;;6311384;28;20697;-72
2024/01/28 16:51:45;;;;;;;17.88;11.38;;;;;;;;;;6314170;28;20043;-72
2024/01/28 16:54:47;;;;;;;16.92;10.57;;;;;;;;;;6315066;28;20040;-71
2024/01/28 16:57:51;;;;;;;20.88;10.70;;;;;;;;;;6290486;28;20046;-71
2024/01/28 17:00:53;;;;;;;15.23;10.23;;;;;;;;;;6309402;28;20052;-72
2024/01/28 17:03:55;;;;;;;14.75;9.15;;;;;;;;;;6313562;28;20797;-72
2024/01/28 17:06:58;;;;;;;19.70;12.48;;;;;;;;;;6291171;28;20067;-72
2024/01/28 17:10:00;;;;;;;21.92;12.88;;;;;;;;;;6292971;28;20032;-72
2024/01/28 17:13:02;;;;;;;20.33;10.43;;;;;;;;;;6315250;28;20047;-71
2024/01/28 17:16:04;;;;;;;14.20;8.25;;;;;;;;;;6309617;28;20110;-72
2024/01/28 17:19:06;;;;;;;17.38;11.85;;;;;;;;;;6308054;28;20761;-71
2024/01/28 17:22:09;;;;;;;13.43;9.20;;;;;;;;;;6314920;28;20506;-72
2024/01/28 17:25:11;;;;;;;15.70;11.73;;;;;;;;;;6309311;28;20616;-71
2024/01/28 17:28:15;;;;;;;19.77;10.98;;;;;;;;;;6294898;28;20078;-71
2024/01/28 17:31:17;;;;;;;23.70;13.63;;;;;;;;;;6312319;28;20679;-72
2024/01/28 17:34:20;;;;;;;19.70;11.15;;;;;;;;;;6307664;28;20055;-72
2024/01/28 17:37:22;;;;;;;17.67;11.23;;;;;;;;;;6303469;28;20056;-73
2024/01/28 17:40:24;;;;;;;18.08;9.98;;;;;;;;;;6306088;28;20059;-73
2024/01/28 17:43:28;;;;;;;13.10;8.95;;;;;;;;;;6293582;28;20075;-71
2024/01/28 17:46:31;;;;;;;22.33;11.43;;;;;;;;;;6311143;28;20052;-72
2024/01/28 17:49:33;;;;;;;19.35;10.75;;;;;;;;;;6307752;28;20105;-72
2024/01/28 17:52:36;;;;;;;20.65;12.35;;;;;;;;;;6313180;28;20135;-72
2024/01/28 17:55:39;;;;;;;19.08;11.73;;;;;;;;;;6308939;28;20515;-72
2024/01/28 17:58:44;;;;;;;16.88;9.90;;;;;;;;;;6304537;28;20055;-72
2024/01/28 18:01:46;;;;;;;15.57;11.27;;;;;;;;;;6300424;28;20434;-71
2024/01/28 18:04:48;;;;;;;26.13;14.98;;;;;;;;;;6310401;28;20087;-73
2024/01/28 18:07:54;;;;;;;31.83;15.85;;;;;;;;;;6318819;28;20044;-73
2024/01/28 18:10:57;;;;;;;31.63;15.50;;;;;;;;;;6309779;28;20775;-73